Istanbul, Turki

04:32 AM EET on November 27, 2014 (GMT +0200)
Ataturk | Change Station
CLOSE
Current Station
Airport
Location: Istanbul,
Elevation: 121 ft
Nearby Weather Stations

Elev 121 ft 40.98 °N, 28.81 °E | Updated 12 minutes ago

Mostly Cloudy
Mendung Merata
43 °F
Feels Like 37 °F
N
12
Angin Variable Angin from Arah Utara

Siang Ini
High -- | Low -- °F
--% Chance of Precip.
Yesterday
High -- | Low -- °F
Precip. -- Inch
7:05 AM 4:38 PM
Waxing Crescent, 25% visible
Tekanan 30.21 Inch
Jarak Pandang 6.2 Mil
Awan Mendung Merata 3000 ft
Angin Dingin 37 °F
Titik Embun 37 °F
Kelembaban 81%
Rainfall 0.00 Inch
Snow Depth Not available.
UV 0 out of 12
Pollen Not available.
Air Quality Not available.
Flu Activity Not available.
METAR LTBA 270220Z 01010KT 9999 BKN030 06/03 Q1023 NOSIG

More Conditions Fewer Conditions

Tekanan 30.21 Inch
Jarak Pandang 6.2 Mil
Awan Mendung Merata 3000 ft
Angin Dingin 37 °F
Titik Embun 37 °F
Kelembaban 81%
Rainfall 0.00 Inch
Snow Depth Not available.
UV 0 out of 12
Pollen Not available.
Air Quality Not available.
Flu Activity Not available.
METAR LTBA 270220Z 01010KT 9999 BKN030 06/03 Q1023 NOSIG

More Conditions Fewer Conditions

10-Day Weather Forecast

Almanac

Astronomi

Nov. 27, 2014 Rise Set
Actual Time
Civil Twilight
Nautical Twilight
Astronomical Twilight
Moon
Length Of Visible Light
Lama Satu Hari
Tomorrow will be .
, % of the Moon is Illuminated

Today's Extremes

Country Highs Country Lows

Community

WunderPhotos

Upload Photos

1,773,948 photos uploaded!

WunderBlogs® & News

Nearby

Air Quality

  Air Quality AQ Index Pollutant
Not available.

Snow Depth

Station Depth Elevation

Earthquake Activity

City Distance Mag. Time & Date
Minimum magnitude displayed is 2.5.

Coastal Water Temperatures

Lokasi Temperatur

Nearby Weather Stations